Time;durP1;ratioP1;P1;durP2;ratioP2;P2;SDS_P1;SDS_P2;PMS_P1;PMS_P2;Temp;Humidity;BMP_temperature;BMP_pressure;BME280_temperature;BME280_humidity;BME280_pressure;Samples;Min_cycle;Max_cycle;Signal;HPM_P1;HPM_P2
2022/12/06 00:01:12;;;;;;;12.85;6.40;;;5.50;99.90;;;;;;5053004;28;20013;-77
2022/12/06 00:03:39;;;;;;;14.15;7.10;;;5.50;99.90;;;;;;5052973;28;20036;-77
2022/12/06 00:06:11;;;;;;;12.18;6.80;;;5.50;99.90;;;;;;5039019;28;20021;-77
2022/12/06 00:08:38;;;;;;;14.90;7.30;;;5.50;99.90;;;;;;5053407;28;20029;-77
2022/12/06 00:11:18;;;;;;;17.10;6.80;;;5.40;99.90;;;;;;5052861;28;20021;-76
2022/12/06 00:13:44;;;;;;;14.68;7.05;;;5.40;99.90;;;;;;5044507;28;20104;-79
2022/12/06 00:16:12;;;;;;;14.93;6.63;;;5.40;99.90;;;;;;5047991;28;20036;-78
2022/12/06 00:18:40;;;;;;;15.23;7.85;;;5.30;99.90;;;;;;5052851;28;20086;-78
2022/12/06 00:21:09;;;;;;;15.88;7.07;;;5.30;99.90;;;;;;5053801;28;20082;-77
2022/12/06 00:23:37;;;;;;;12.50;6.87;;;5.40;99.90;;;;;;5025451;28;20535;-78
2022/12/06 00:26:04;;;;;;;17.55;7.95;;;5.40;99.90;;;;;;5052560;28;20031;-77
2022/12/06 00:28:30;;;;;;;13.45;6.97;;;5.50;99.90;;;;;;5052662;28;20381;-77
2022/12/06 00:31:02;;;;;;;10.82;6.50;;;5.60;99.90;;;;;;5052437;28;20041;-77
2022/12/06 00:33:28;;;;;;;10.05;7.07;;;5.60;99.90;;;;;;5052468;28;20024;-78
2022/12/06 00:35:59;;;;;;;20.05;6.85;;;5.60;99.90;;;;;;5052644;28;20029;-77
2022/12/06 00:38:26;;;;;;;18.02;7.03;;;5.60;99.90;;;;;;5051854;28;20040;-77
2022/12/06 00:41:03;;;;;;;13.88;7.40;;;5.50;99.90;;;;;;5052733;28;20025;-77
2022/12/06 00:43:29;;;;;;;16.88;7.25;;;5.60;99.90;;;;;;5047347;28;20037;-77
2022/12/06 00:45:55;;;;;;;14.15;6.22;;;5.60;99.90;;;;;;5051887;28;20499;-77
2022/12/06 00:48:20;;;;;;;11.40;6.70;;;5.60;99.90;;;;;;5052650;28;20037;-78
2022/12/06 00:50:46;;;;;;;11.98;6.65;;;5.60;99.90;;;;;;5052720;28;20500;-77
2022/12/06 00:53:11;;;;;;;17.60;6.95;;;5.70;99.90;;;;;;5031790;28;20028;-77
2022/12/06 00:55:37;;;;;;;14.93;5.93;;;5.70;99.90;;;;;;5042908;28;20102;-77
2022/12/06 00:58:03;;;;;;;18.27;6.93;;;5.70;99.90;;;;;;5056644;28;20029;-76
2022/12/06 01:00:28;;;;;;;12.90;6.72;;;5.70;99.90;;;;;;5056564;28;20025;-76
2022/12/06 01:02:56;;;;;;;13.65;6.53;;;5.70;99.90;;;;;;5056213;28;20036;-77
2022/12/06 01:05:21;;;;;;;9.23;6.13;;;5.70;99.90;;;;;;5056176;28;20381;-76
2022/12/06 01:07:47;;;;;;;24.13;7.28;;;5.60;99.90;;;;;;5028399;28;20025;-77
2022/12/06 01:10:16;;;;;;;15.23;6.90;;;5.50;99.90;;;;;;5056827;28;20032;-77
2022/12/06 01:12:43;;;;;;;11.27;6.47;;;5.60;99.90;;;;;;5052833;28;20020;-76
2022/12/06 01:15:09;;;;;;;20.67;6.78;;;5.50;99.90;;;;;;5049675;28;20129;-77
2022/12/06 01:17:34;;;;;;;9.30;5.63;;;5.60;99.90;;;;;;5049053;28;20092;-77
2022/12/06 01:20:00;;;;;;;12.13;5.82;;;5.60;99.90;;;;;;5056610;28;20435;-76
2022/12/06 01:22:26;;;;;;;12.57;5.82;;;5.60;99.90;;;;;;5056144;28;20060;-77
2022/12/06 01:24:51;;;;;;;18.63;6.00;;;5.60;99.90;;;;;;5056619;28;20048;-77
2022/12/06 01:27:17;;;;;;;11.73;6.13;;;5.50;99.90;;;;;;5057053;28;20029;-77
2022/12/06 01:29:43;;;;;;;13.05;5.60;;;5.60;99.90;;;;;;5056328;28;20045;-76
2022/12/06 01:32:08;;;;;;;16.92;6.65;;;5.60;99.90;;;;;;5056607;28;20021;-77
2022/12/06 01:34:34;;;;;;;13.95;6.43;;;5.50;99.90;;;;;;5056483;28;20049;-76
2022/12/06 01:37:00;;;;;;;12.50;5.95;;;5.50;99.90;;;;;;5040853;28;20028;-78
2022/12/06 01:39:25;;;;;;;17.65;6.43;;;5.40;99.90;;;;;;5056326;28;20029;-76
2022/12/06 01:41:51;;;;;;;10.75;6.03;;;5.40;99.90;;;;;;5055482;28;20032;-76
2022/12/06 01:44:37;;;;;;;10.38;5.55;;;5.40;99.90;;;;;;5056117;28;20025;-76
2022/12/06 01:47:03;;;;;;;8.27;5.15;;;5.30;99.90;;;;;;5055570;28;20488;-76
2022/12/06 01:49:33;;;;;;;10.40;5.35;;;5.30;99.90;;;;;;5055907;28;20032;-77
2022/12/06 01:52:04;;;;;;;8.00;5.97;;;5.20;99.90;;;;;;5054747;28;20124;-77
2022/12/06 01:54:31;;;;;;;11.27;5.55;;;5.20;99.90;;;;;;5045456;28;20159;-76
2022/12/06 01:57:00;;;;;;;7.55;5.50;;;5.10;99.90;;;;;;5055751;28;20186;-76
2022/12/06 01:59:27;;;;;;;6.65;4.82;;;5.10;99.90;;;;;;5056482;28;20025;-76
2022/12/06 02:01:53;;;;;;;11.07;4.93;;;5.10;99.90;;;;;;5056250;28;20025;-75
2022/12/06 02:04:20;;;;;;;11.15;5.18;;;5.00;99.90;;;;;;5054855;28;20129;-76
2022/12/06 02:06:46;;;;;;;13.90;5.22;;;5.00;99.90;;;;;;5056281;28;20037;-76
2022/12/06 02:09:14;;;;;;;9.43;5.70;;;5.00;99.90;;;;;;5055062;28;20049;-76
2022/12/06 02:11:40;;;;;;;15.88;5.32;;;5.00;99.90;;;;;;5055610;28;20075;-76
2022/12/06 02:14:11;;;;;;;12.85;5.43;;;4.90;99.90;;;;;;5055869;28;20041;-77
2022/12/06 02:16:46;;;;;;;11.98;5.03;;;4.90;99.90;;;;;;5056389;28;20503;-76
2022/12/06 02:19:24;;;;;;;8.23;4.78;;;4.90;99.90;;;;;;5055790;28;20143;-75
2022/12/06 02:21:58;;;;;;;9.10;5.05;;;4.90;99.90;;;;;;5053963;28;20049;-76
2022/12/06 02:24:48;;;;;;;8.10;5.30;;;5.00;99.90;;;;;;5048818;28;20064;-77
2022/12/06 02:27:39;;;;;;;11.40;5.00;;;4.90;99.90;;;;;;5055630;28;20025;-77
2022/12/06 02:30:10;;;;;;;10.63;5.10;;;4.90;99.90;;;;;;5054764;28;20040;-77
2022/12/06 02:32:54;;;;;;;11.82;5.30;;;4.80;99.90;;;;;;5054880;28;20022;-75
2022/12/06 02:35:24;;;;;;;10.60;5.43;;;4.90;99.90;;;;;;5055547;28;20024;-77
2022/12/06 02:38:01;;;;;;;9.77;4.63;;;4.80;99.90;;;;;;5055582;28;20489;-75
2022/12/06 02:40:40;;;;;;;9.60;4.93;;;4.80;99.90;;;;;;5056110;28;20021;-77
2022/12/06 02:43:14;;;;;;;11.65;4.93;;;4.80;99.90;;;;;;5055775;28;20028;-77
2022/12/06 02:45:45;;;;;;;11.63;5.40;;;4.80;99.90;;;;;;5055210;28;20017;-78
2022/12/06 02:48:13;;;;;;;12.55;6.10;;;4.80;99.90;;;;;;5056307;28;20544;-76
2022/12/06 02:50:42;;;;;;;11.60;6.55;;;4.90;99.90;;;;;;5052014;28;20060;-76
2022/12/06 02:53:12;;;;;;;8.10;5.35;;;4.80;99.90;;;;;;5046885;28;20175;-76
2022/12/06 02:55:40;;;;;;;18.67;5.10;;;4.80;99.90;;;;;;5051753;28;20109;-76
2022/12/06 02:58:05;;;;;;;19.75;5.85;;;4.80;99.90;;;;;;5046995;28;20037;-76
2022/12/06 03:00:40;;;;;;;16.17;5.28;;;4.80;99.90;;;;;;5041820;28;20019;-77
2022/12/06 03:03:33;;;;;;;11.07;5.00;;;4.90;99.90;;;;;;5056471;28;20028;-75
2022/12/06 03:06:01;;;;;;;9.27;5.00;;;4.90;99.90;;;;;;5052448;28;20013;-76
2022/12/06 03:08:51;;;;;;;7.13;4.43;;;4.90;99.90;;;;;;5039465;28;20017;-76
2022/12/06 03:11:18;;;;;;;8.50;4.40;;;4.80;99.90;;;;;;5065774;28;20021;-77
2022/12/06 03:13:56;;;;;;;8.40;4.60;;;4.80;99.90;;;;;;5070715;28;20045;-76
2022/12/06 03:16:34;;;;;;;9.57;5.35;;;4.70;99.90;;;;;;5069744;28;20043;-76
2022/12/06 03:19:30;;;;;;;7.63;4.30;;;4.70;99.90;;;;;;5040827;28;20028;-76
2022/12/06 03:22:05;;;;;;;14.70;4.85;;;4.70;99.90;;;;;;5065211;28;20037;-77
2022/12/06 03:24:38;;;;;;;13.68;4.63;;;4.70;99.90;;;;;;5061552;28;20035;-76
2022/12/06 03:27:08;;;;;;;8.93;4.82;;;4.70;99.90;;;;;;5064869;28;20048;-77
2022/12/06 03:29:39;;;;;;;7.15;3.97;;;4.70;99.90;;;;;;5053282;28;20493;-76
2022/12/06 03:32:07;;;;;;;13.10;4.85;;;4.80;99.90;;;;;;5053603;28;20029;-77
2022/12/06 03:34:39;;;;;;;7.40;4.95;;;4.70;99.90;;;;;;5054606;28;20520;-77
2022/12/06 03:37:08;;;;;;;8.18;4.57;;;4.80;99.90;;;;;;5054480;28;20047;-76
2022/12/06 03:39:47;;;;;;;10.85;4.28;;;4.70;99.90;;;;;;5056413;28;20099;-76
2022/12/06 03:42:13;;;;;;;12.70;4.57;;;4.80;99.90;;;;;;5053842;28;20032;-77
2022/12/06 03:44:38;;;;;;;13.52;4.75;;;4.80;99.90;;;;;;5054675;28;20025;-79
2022/12/06 03:47:14;;;;;;;8.85;4.68;;;4.80;99.90;;;;;;5053871;28;20060;-76
2022/12/06 03:49:45;;;;;;;6.07;4.03;;;4.80;99.90;;;;;;5027243;28;20029;-76
2022/12/06 03:52:10;;;;;;;5.70;4.32;;;4.80;99.90;;;;;;5056717;28;20033;-79
2022/12/06 03:54:40;;;;;;;12.55;4.45;;;4.70;99.90;;;;;;5054089;28;20107;-76
2022/12/06 03:57:06;;;;;;;9.65;4.80;;;4.80;99.90;;;;;;5054218;28;20033;-76
2022/12/06 03:59:31;;;;;;;13.02;4.68;;;4.80;99.90;;;;;;5055886;28;20043;-76
2022/12/06 04:01:57;;;;;;;10.90;4.93;;;4.70;99.90;;;;;;5055603;28;20568;-77
2022/12/06 04:04:23;;;;;;;9.52;5.78;;;4.90;99.90;;;;;;5055899;28;20082;-77
2022/12/06 04:06:50;;;;;;;6.53;3.92;;;4.80;99.90;;;;;;5055164;28;20135;-74
2022/12/06 04:12:00;;;;;;;10.00;4.68;;;4.80;99.90;;;;;;5053881;28;20028;-77
2022/12/06 04:14:31;;;;;;;5.65;4.03;;;4.70;99.90;;;;;;5053090;28;20021;-76
2022/12/06 04:19:41;;;;;;;9.95;3.70;;;4.80;99.90;;;;;;5053897;28;20063;-76
2022/12/06 04:24:51;;;;;;;8.73;3.58;;;4.70;99.90;;;;;;5052530;28;20412;-76
2022/12/06 04:40:57;;;;;;;10.65;3.63;;;4.60;99.90;;;;;;5054465;28;20028;-77
2022/12/06 04:46:07;;;;;;;6.35;3.72;;;4.60;99.90;;;;;;5029353;28;20383;-77
2022/12/06 04:48:33;;;;;;;14.95;3.83;;;4.60;99.90;;;;;;5051642;28;20054;-78
2022/12/06 04:50:58;;;;;;;8.63;4.03;;;4.60;99.90;;;;;;5052824;28;20480;-78
2022/12/06 04:53:24;;;;;;;11.80;4.88;;;4.50;99.90;;;;;;5053204;28;20032;-78
2022/12/06 04:55:51;;;;;;;10.05;4.63;;;4.60;99.90;;;;;;5053587;28;20020;-77
2022/12/06 04:58:17;;;;;;;7.65;4.18;;;4.60;99.90;;;;;;5053559;28;20078;-79
2022/12/06 05:00:43;;;;;;;13.13;3.92;;;4.70;99.90;;;;;;5053063;28;20033;-78
2022/12/06 05:03:14;;;;;;;10.50;3.95;;;4.70;99.90;;;;;;5054030;28;20072;-78
2022/12/06 05:05:41;;;;;;;7.88;3.55;;;4.60;99.90;;;;;;5053421;28;20376;-78
2022/12/06 05:08:07;;;;;;;6.25;3.63;;;4.60;99.90;;;;;;5053101;28;20503;-77
2022/12/06 05:10:33;;;;;;;6.63;3.60;;;4.60;99.90;;;;;;5053281;28;20056;-77
2022/12/06 05:12:59;;;;;;;9.05;4.00;;;4.60;99.90;;;;;;5052474;28;20483;-78
2022/12/06 05:15:25;;;;;;;7.53;3.75;;;4.50;99.90;;;;;;5045959;28;20481;-77
2022/12/06 05:17:51;;;;;;;4.75;3.00;;;4.50;99.90;;;;;;5045471;28;20079;-77
2022/12/06 05:20:16;;;;;;;10.90;3.42;;;4.60;99.90;;;;;;5052947;28;20045;-77
2022/12/06 05:22:42;;;;;;;12.15;3.75;;;4.50;99.90;;;;;;5053768;28;20060;-77
2022/12/06 05:25:08;;;;;;;11.30;3.80;;;4.50;99.90;;;;;;5049533;28;20021;-78
2022/12/06 05:27:33;;;;;;;5.10;3.33;;;4.50;99.90;;;;;;5041701;28;20044;-77
2022/12/06 05:29:59;;;;;;;5.10;3.00;;;4.50;99.90;;;;;;5053090;28;20049;-77
2022/12/06 05:32:24;;;;;;;7.68;3.35;;;4.50;99.90;;;;;;5052922;28;20366;-78
2022/12/06 05:34:50;;;;;;;7.25;3.40;;;4.40;99.90;;;;;;5052497;28;20051;-78
2022/12/06 05:37:16;;;;;;;9.55;3.65;;;4.40;99.90;;;;;;5053541;28;20076;-78
2022/12/06 05:39:41;;;;;;;7.07;3.35;;;4.40;99.90;;;;;;5053704;28;20024;-76
2022/12/06 05:42:07;;;;;;;9.27;3.20;;;4.40;99.90;;;;;;5052223;28;20440;-77
2022/12/06 05:44:32;;;;;;;7.55;3.63;;;4.40;99.90;;;;;;5057513;28;20745;-77
2022/12/06 05:46:58;;;;;;;5.97;3.25;;;4.30;99.90;;;;;;5057636;28;20033;-77
2022/12/06 05:49:24;;;;;;;7.68;3.40;;;4.30;99.90;;;;;;5050381;28;20032;-77
2022/12/06 05:51:49;;;;;;;4.85;3.53;;;4.30;99.90;;;;;;5050211;28;20107;-77
2022/12/06 05:54:15;;;;;;;10.23;3.47;;;4.30;99.90;;;;;;5056833;28;20043;-77
2022/12/06 05:56:40;;;;;;;7.55;3.55;;;4.20;99.90;;;;;;5054511;28;20032;-77
2022/12/06 05:59:06;;;;;;;5.82;3.40;;;4.10;99.90;;;;;;5044006;28;20049;-78
2022/12/06 06:01:31;;;;;;;7.90;3.80;;;4.10;99.90;;;;;;5036840;28;20026;-77
2022/12/06 06:03:57;;;;;;;5.93;3.72;;;4.00;99.90;;;;;;5037689;28;20033;-77
2022/12/06 06:06:23;;;;;;;9.32;3.80;;;4.00;99.90;;;;;;5039386;28;20017;-76
2022/12/06 06:08:49;;;;;;;5.95;3.90;;;3.90;99.90;;;;;;5045511;28;20485;-78
2022/12/06 06:11:14;;;;;;;4.88;3.25;;;3.90;99.90;;;;;;5055869;28;20029;-77
2022/12/06 06:13:40;;;;;;;5.63;3.15;;;3.90;99.90;;;;;;5054461;28;20082;-78
2022/12/06 06:16:11;;;;;;;5.65;3.70;;;3.90;99.90;;;;;;5055222;28;20477;-78
2022/12/06 06:18:37;;;;;;;6.80;3.47;;;3.80;99.90;;;;;;5040953;28;20085;-79
2022/12/06 06:21:03;;;;;;;3.05;2.78;;;3.90;99.90;;;;;;5035016;28;20053;-80
2022/12/06 06:23:28;;;;;;;6.47;2.92;;;3.80;99.90;;;;;;5036175;28;20033;-78
2022/12/06 06:25:55;;;;;;;4.65;3.05;;;3.70;99.90;;;;;;5035696;28;20090;-79
2022/12/06 06:28:21;;;;;;;3.33;2.92;;;3.70;99.90;;;;;;5037649;28;20025;-78
2022/12/06 06:30:47;;;;;;;8.35;3.72;;;3.60;99.90;;;;;;5038679;28;20045;-79
2022/12/06 06:33:13;;;;;;;5.68;3.45;;;3.60;99.90;;;;;;5039573;28;20021;-80
2022/12/06 06:35:39;;;;;;;3.83;3.17;;;3.60;99.90;;;;;;5034920;28;20017;-78
2022/12/06 06:38:07;;;;;;;9.30;3.60;;;3.60;99.90;;;;;;5034423;28;20371;-78
2022/12/06 06:40:34;;;;;;;3.92;3.50;;;3.60;99.90;;;;;;5031646;28;20033;-78
2022/12/06 06:43:16;;;;;;;8.35;4.78;;;3.60;99.90;;;;;;5017089;28;20033;-79
2022/12/06 06:45:44;;;;;;;8.40;3.55;;;3.60;99.90;;;;;;5018294;28;20030;-78
2022/12/06 06:48:10;;;;;;;4.95;3.25;;;3.60;99.90;;;;;;5015199;28;20021;-80
2022/12/06 06:50:35;;;;;;;5.53;3.83;;;3.60;99.90;;;;;;5018601;28;20030;-79
2022/12/06 06:53:01;;;;;;;5.50;3.42;;;3.60;99.90;;;;;;5016798;28;20018;-79
2022/12/06 06:55:29;;;;;;;4.18;3.65;;;3.60;99.90;;;;;;5019999;28;20029;-79
2022/12/06 06:57:54;;;;;;;6.15;3.50;;;3.60;99.90;;;;;;5022339;28;20052;-78
2022/12/06 07:00:20;;;;;;;5.00;3.00;;;3.50;99.90;;;;;;5018588;28;20026;-79
2022/12/06 07:02:48;;;;;;;3.83;3.25;;;3.40;99.90;;;;;;5034184;28;20018;-78
2022/12/06 07:05:14;;;;;;;4.35;3.65;;;3.40;99.90;;;;;;5033429;28;20033;-78
2022/12/06 07:07:39;;;;;;;3.25;2.85;;;3.30;99.90;;;;;;5034663;28;20039;-78
2022/12/06 07:10:06;;;;;;;6.13;3.25;;;3.30;99.90;;;;;;5033305;28;20024;-78
2022/12/06 07:12:31;;;;;;;4.18;3.60;;;3.20;99.90;;;;;;5033356;28;20027;-77
2022/12/06 07:14:57;;;;;;;5.32;3.60;;;3.20;99.90;;;;;;5033855;28;20025;-77
2022/12/06 07:17:23;;;;;;;6.05;3.33;;;3.10;99.90;;;;;;5033866;28;20071;-77
2022/12/06 07:19:49;;;;;;;5.32;3.85;;;3.10;99.90;;;;;;5033211;28;20111;-78
2022/12/06 07:22:16;;;;;;;7.47;3.75;;;3.00;99.90;;;;;;5033341;28;20080;-77
2022/12/06 07:24:41;;;;;;;4.70;3.58;;;3.00;99.90;;;;;;5027793;28;20104;-78
2022/12/06 07:27:07;;;;;;;7.25;4.10;;;2.90;99.90;;;;;;5027995;28;20124;-79
2022/12/06 07:29:32;;;;;;;4.35;3.63;;;2.90;99.90;;;;;;5030316;28;20061;-79
2022/12/06 07:31:58;;;;;;;5.90;3.70;;;2.90;99.90;;;;;;5033941;28;20024;-78
2022/12/06 07:34:23;;;;;;;7.22;4.03;;;2.90;99.90;;;;;;5030883;28;20077;-78
2022/12/06 07:36:49;;;;;;;6.95;3.92;;;2.80;99.90;;;;;;5031471;28;20037;-78
2022/12/06 07:39:15;;;;;;;5.38;4.10;;;2.80;99.90;;;;;;5035870;28;20025;-78
2022/12/06 07:47:09;;;;;;;7.85;4.00;;;2.70;99.90;;;;;;5027760;28;20370;-77
2022/12/06 07:49:34;;;;;;;6.07;3.80;;;2.80;99.90;;;;;;5029518;28;20029;-76
2022/12/06 07:52:01;;;;;;;4.05;3.35;;;2.80;99.90;;;;;;5028028;28;20113;-79
2022/12/06 07:54:26;;;;;;;4.30;3.55;;;2.70;99.90;;;;;;5032578;28;20042;-77
2022/12/06 07:56:55;;;;;;;9.45;3.47;;;2.70;99.90;;;;;;5029420;28;20484;-77
2022/12/06 07:59:20;;;;;;;5.07;3.47;;;2.70;99.90;;;;;;5039263;28;20033;-84
2022/12/06 08:01:46;;;;;;;5.30;3.15;;;2.70;99.90;;;;;;5040386;28;20029;-83
2022/12/06 08:04:12;;;;;;;6.00;3.70;;;2.70;99.90;;;;;;5041193;28;20424;-85
2022/12/06 08:06:38;;;;;;;3.55;3.13;;;2.70;99.90;;;;;;5039845;28;20037;-83
2022/12/06 08:09:04;;;;;;;5.90;3.70;;;2.70;99.90;;;;;;5038926;28;20033;-84
2022/12/06 08:11:31;;;;;;;4.43;3.13;;;2.70;99.90;;;;;;5040859;28;20036;-83
2022/12/06 08:13:56;;;;;;;4.80;3.28;;;2.70;99.90;;;;;;5041247;28;20077;-84
2022/12/06 08:16:22;;;;;;;4.63;3.30;;;2.70;99.90;;;;;;5045351;28;20539;-83
2022/12/06 08:18:48;;;;;;;4.28;3.20;;;2.70;99.90;;;;;;5039315;28;20120;-83
2022/12/06 08:21:15;;;;;;;6.18;3.35;;;2.70;99.90;;;;;;5032138;28;20075;-80
2022/12/06 08:23:40;;;;;;;6.10;4.35;;;2.70;99.90;;;;;;5039382;28;20060;-77
2022/12/06 08:26:13;;;;;;;6.05;4.30;;;2.70;99.90;;;;;;5036562;28;20428;-81
2022/12/06 08:28:39;;;;;;;5.20;3.88;;;2.70;99.90;;;;;;5040286;28;20047;-82
2022/12/06 08:31:07;;;;;;;5.80;4.28;;;2.70;99.90;;;;;;5059130;28;20165;-82
2022/12/06 08:33:33;;;;;;;7.15;4.47;;;2.80;99.90;;;;;;5051662;28;20029;-81
2022/12/06 08:35:59;;;;;;;6.35;3.63;;;2.80;99.90;;;;;;5047269;28;20072;-82
2022/12/06 08:38:24;;;;;;;5.63;4.20;;;2.90;99.90;;;;;;5026502;28;20030;-82
2022/12/06 08:40:50;;;;;;;7.35;4.80;;;2.90;99.90;;;;;;5044879;28;20029;-81
2022/12/06 08:43:16;;;;;;;11.30;4.78;;;2.90;99.90;;;;;;5042942;28;20072;-83
2022/12/06 08:45:42;;;;;;;8.88;4.28;;;3.00;99.90;;;;;;5047588;28;20048;-83
2022/12/06 08:48:08;;;;;;;11.73;4.63;;;3.00;99.90;;;;;;5043014;28;20045;-83
2022/12/06 08:50:33;;;;;;;8.07;4.30;;;3.00;99.90;;;;;;5029010;28;20063;-83
2022/12/06 08:52:59;;;;;;;8.73;4.40;;;3.00;99.90;;;;;;5021158;28;20018;-85
2022/12/06 08:55:24;;;;;;;5.75;3.65;;;3.00;99.90;;;;;;5023907;28;20041;-75
2022/12/06 08:57:50;;;;;;;6.25;4.18;;;3.00;99.90;;;;;;5017587;28;20391;-78
2022/12/06 09:00:16;;;;;;;9.45;4.28;;;3.10;99.90;;;;;;5018589;28;20026;-79
2022/12/06 09:02:41;;;;;;;8.23;3.83;;;3.10;99.90;;;;;;5016976;28;20034;-82
2022/12/06 09:05:08;;;;;;;7.57;4.10;;;3.10;99.90;;;;;;5030376;28;20021;-76
2022/12/06 09:07:33;;;;;;;7.35;4.15;;;3.10;99.90;;;;;;5036542;28;20116;-81
2022/12/06 09:10:00;;;;;;;3.97;3.58;;;3.20;99.90;;;;;;5037266;28;20053;-80
2022/12/06 09:12:25;;;;;;;8.65;4.22;;;3.10;99.90;;;;;;5048295;28;20045;-79
2022/12/06 09:14:51;;;;;;;7.53;4.07;;;3.20;99.90;;;;;;5056892;28;20048;-81
2022/12/06 09:17:16;;;;;;;9.27;3.50;;;3.10;99.90;;;;;;5057546;28;20500;-80
2022/12/06 09:19:42;;;;;;;8.55;4.00;;;3.10;99.90;;;;;;5042907;28;20026;-80
2022/12/06 09:22:08;;;;;;;4.63;4.20;;;3.20;99.90;;;;;;5040492;28;20037;-80
2022/12/06 09:24:34;;;;;;;8.48;4.03;;;3.20;99.90;;;;;;5036818;28;20044;-79
2022/12/06 09:26:59;;;;;;;6.07;4.57;;;3.20;99.90;;;;;;5040260;28;20481;-80
2022/12/06 09:29:25;;;;;;;8.23;4.63;;;3.30;99.90;;;;;;5039970;28;20072;-80
2022/12/06 09:31:52;;;;;;;10.73;4.38;;;3.40;99.90;;;;;;5037476;28;20385;-79
2022/12/06 09:34:18;;;;;;;12.77;3.75;;;3.60;99.90;;;;;;5038913;28;20104;-77
2022/12/06 09:37:02;;;;;;;4.35;3.88;;;3.80;99.90;;;;;;5039397;28;20065;-78
2022/12/06 09:39:39;;;;;;;6.22;3.88;;;3.90;99.90;;;;;;5038622;28;20030;-77
2022/12/06 09:42:46;;;;;;;10.10;3.63;;;4.00;99.90;;;;;;5038139;28;20026;-78
2022/12/06 09:45:27;;;;;;;7.20;3.78;;;4.20;99.90;;;;;;5014885;28;20045;-77
2022/12/06 09:48:43;;;;;;;4.50;3.33;;;4.30;99.90;;;;;;5039189;28;20017;-78
2022/12/06 09:51:19;;;;;;;5.07;3.38;;;4.40;99.90;;;;;;5037597;28;20477;-72
2022/12/06 09:54:12;;;;;;;3.95;3.38;;;4.50;99.90;;;;;;5038313;28;20465;-80
2022/12/06 09:56:41;;;;;;;10.38;3.92;;;4.50;99.90;;;;;;5040157;28;20033;-80
2022/12/06 09:59:41;;;;;;;5.05;3.55;;;4.60;99.90;;;;;;5037704;28;20474;-74
2022/12/06 10:02:46;;;;;;;9.95;3.90;;;4.60;99.90;;;;;;5037543;28;20555;-78
2022/12/06 10:05:30;;;;;;;17.08;4.57;;;4.70;99.90;;;;;;5024936;28;20021;-79
2022/12/06 10:08:01;;;;;;;6.43;3.53;;;4.70;99.90;;;;;;5037354;28;20041;-76
2022/12/06 10:11:02;;;;;;;6.57;4.30;;;4.80;99.90;;;;;;5027391;28;20033;-77
2022/12/06 10:13:55;;;;;;;5.22;3.90;;;4.90;99.90;;;;;;5023747;28;20124;-78
2022/12/06 10:16:45;;;;;;;5.55;4.30;;;5.00;99.90;;;;;;5027826;28;20037;-78
2022/12/06 10:19:42;;;;;;;7.32;4.32;;;5.20;99.90;;;;;;5034634;28;20030;-79
2022/12/06 10:22:35;;;;;;;6.78;4.28;;;5.20;99.90;;;;;;5038527;28;20031;-77
2022/12/06 10:25:31;;;;;;;7.93;4.10;;;5.40;99.90;;;;;;5036304;28;20492;-75
2022/12/06 10:28:07;;;;;;;3.92;3.50;;;5.60;99.90;;;;;;5045393;28;20084;-78
2022/12/06 10:30:40;;;;;;;7.35;3.75;;;5.60;99.90;;;;;;5026246;28;20041;-79
2022/12/06 10:33:20;;;;;;;5.40;3.75;;;5.70;99.90;;;;;;5033451;28;20072;-76
2022/12/06 10:35:54;;;;;;;9.48;4.05;;;5.70;99.90;;;;;;5035879;28;20025;-79
2022/12/06 10:38:34;;;;;;;4.80;3.58;;;5.90;99.90;;;;;;5034731;28;20092;-77
2022/12/06 10:41:17;;;;;;;6.80;3.85;;;5.90;99.90;;;;;;5031919;28;20021;-77
2022/12/06 10:44:11;;;;;;;5.70;3.08;;;6.00;99.90;;;;;;5031970;28;20040;-78
2022/12/06 10:47:04;;;;;;;6.05;3.40;;;6.10;99.90;;;;;;5034824;28;20038;-77
2022/12/06 10:49:55;;;;;;;8.70;4.05;;;6.10;99.90;;;;;;5033405;28;20075;-77
2022/12/06 10:52:41;;;;;;;11.07;3.45;;;6.10;99.90;;;;;;5032125;28;20025;-78
2022/12/06 10:55:10;;;;;;;4.22;3.50;;;6.20;99.90;;;;;;5029093;28;20033;-77
2022/12/06 10:57:44;;;;;;;7.80;3.63;;;6.30;99.90;;;;;;5031511;28;20512;-78
2022/12/06 11:00:18;;;;;;;5.35;3.85;;;6.40;99.90;;;;;;5027456;28;20099;-78
2022/12/06 11:02:55;;;;;;;6.28;3.20;;;6.50;99.90;;;;;;5032663;28;20034;-77
2022/12/06 11:05:48;;;;;;;6.38;2.35;;;6.60;99.90;;;;;;5033365;28;20026;-77
2022/12/06 11:08:20;;;;;;;8.98;3.20;;;6.60;99.90;;;;;;5034042;28;20043;-78
2022/12/06 11:10:47;;;;;;;5.38;2.90;;;6.50;99.90;;;;;;5029622;28;20029;-77
2022/12/06 11:13:15;;;;;;;4.00;3.25;;;6.40;99.90;;;;;;5032160;28;20485;-77
2022/12/06 11:16:06;;;;;;;5.32;3.33;;;6.40;99.90;;;;;;5033901;28;20055;-78
2022/12/06 11:18:33;;;;;;;3.90;2.63;;;6.40;99.90;;;;;;5028222;28;20057;-76
2022/12/06 11:21:27;;;;;;;4.32;2.60;;;6.50;99.90;;;;;;5033222;28;20033;-76
2022/12/06 11:24:21;;;;;;;7.22;3.05;;;6.50;99.90;;;;;;5032542;28;20018;-73
2022/12/06 11:27:32;;;;;;;3.83;2.88;;;6.60;99.90;;;;;;5031705;28;20030;-77
2022/12/06 11:29:58;;;;;;;;;;;6.70;99.90;;;;;;5009949;28;20448;-78
2022/12/06 11:32:23;;;;;;;7.57;2.85;;;6.80;99.90;;;;;;5019465;28;19909;-77
2022/12/06 11:34:52;;;;;;;3.53;2.50;;;6.80;99.90;;;;;;5017298;28;20527;-76
2022/12/06 11:37:25;;;;;;;4.72;2.38;;;6.80;99.90;;;;;;5035134;28;20051;-77
2022/12/06 11:40:05;;;;;;;6.68;2.05;;;6.90;99.90;;;;;;5034484;28;20126;-79
2022/12/06 11:42:30;;;;;;;8.65;2.30;;;7.10;99.90;;;;;;5028569;28;20033;-78
2022/12/06 11:45:26;;;;;;;4.63;2.33;;;7.20;99.90;;;;;;5035614;28;20473;-75
2022/12/06 11:47:54;;;;;;;4.45;2.47;;;7.30;99.90;;;;;;5034677;28;20030;-76
2022/12/06 11:50:20;;;;;;;5.90;2.78;;;7.40;99.90;;;;;;5035676;28;20033;-76
2022/12/06 11:52:58;;;;;;;6.63;2.28;;;7.50;99.90;;;;;;5035691;28;20021;-77
2022/12/06 11:55:27;;;;;;;3.95;2.00;;;7.50;99.90;;;;;;5029550;28;20033;-77
2022/12/06 11:58:05;;;;;;;5.43;2.25;;;7.60;99.90;;;;;;5034966;28;20116;-77
2022/12/06 12:00:31;;;;;;;2.95;1.75;;;7.60;99.90;;;;;;5028694;28;20029;-77
2022/12/06 12:02:57;;;;;;;3.95;1.90;;;7.60;99.90;;;;;;5034672;28;20067;-79
2022/12/06 12:05:25;;;;;;;3.17;1.70;;;7.60;99.90;;;;;;5029546;28;20021;-77
2022/12/06 12:08:01;;;;;;;1.52;1.42;;;7.60;99.90;;;;;;5033922;28;20025;-78
2022/12/06 12:10:39;;;;;;;2.67;1.42;;;7.50;99.90;;;;;;5045397;28;20047;-77
2022/12/06 12:16:00;;;;;;;3.65;1.65;;;7.50;99.90;;;;;;5031528;28;20112;-76
2022/12/06 12:18:35;;;;;;;;;;;7.50;99.90;;;;;;5030979;28;20441;-79
2022/12/06 12:21:03;;;;;;;6.50;2.33;;;7.60;99.90;;;;;;5021262;28;19908;-77
2022/12/06 12:23:32;;;;;;;3.88;2.03;;;7.80;99.90;;;;;;5027840;28;20116;-77
2022/12/06 12:26:17;;;;;;;3.53;1.13;;;7.90;99.90;;;;;;5031569;28;20025;-78
2022/12/06 12:28:45;;;;;;;5.03;1.60;;;8.20;99.90;;;;;;5030028;28;20077;-78
2022/12/06 12:31:20;;;;;;;6.57;2.08;;;8.20;99.90;;;;;;5033064;28;20465;-77
2022/12/06 12:33:46;;;;;;;4.05;1.60;;;8.20;99.90;;;;;;5032902;28;20029;-77
2022/12/06 12:36:18;;;;;;;4.35;1.67;;;8.20;99.90;;;;;;5030492;28;20014;-77
2022/12/06 12:39:04;;;;;;;6.65;2.22;;;8.10;99.90;;;;;;5029612;28;20044;-77
2022/12/06 12:41:43;;;;;;;3.60;1.35;;;8.20;99.90;;;;;;5023844;28;20033;-78
2022/12/06 12:44:25;;;;;;;4.78;1.73;;;8.20;99.90;;;;;;5031564;28;20036;-78
2022/12/06 12:47:21;;;;;;;4.30;1.88;;;8.20;99.90;;;;;;5034503;28;20041;-78
2022/12/06 12:50:06;;;;;;;4.65;1.92;;;8.10;99.90;;;;;;5033092;28;20037;-78
2022/12/06 12:52:37;;;;;;;7.22;1.90;;;8.10;99.90;;;;;;5033535;28;20032;-78
2022/12/06 12:55:19;;;;;;;3.67;1.88;;;8.10;99.90;;;;;;5033113;28;20464;-78
2022/12/06 12:57:48;;;;;;;4.43;2.22;;;8.00;99.90;;;;;;5032682;28;20029;-79
2022/12/06 13:00:20;;;;;;;5.43;2.55;;;8.10;99.90;;;;;;5033356;28;20128;-78
2022/12/06 13:02:58;;;;;;;5.97;2.28;;;8.10;99.90;;;;;;5031858;28;20024;-78
2022/12/06 13:05:29;;;;;;;5.53;2.05;;;8.10;99.90;;;;;;5030386;28;20036;-77
2022/12/06 13:08:15;;;;;;;4.50;2.03;;;8.10;99.90;;;;;;5034826;28;20041;-78
2022/12/06 13:10:46;;;;;;;4.00;2.17;;;8.10;99.90;;;;;;5031604;28;20032;-77
2022/12/06 13:13:12;;;;;;;;;;;8.10;99.90;;;;;;5037693;28;20029;-78
2022/12/06 13:15:46;;;;;;;5.07;2.17;;;8.10;99.90;;;;;;5035522;28;19979;-78
2022/12/06 13:18:17;;;;;;;3.58;2.00;;;8.00;99.90;;;;;;5031150;28;20441;-77
2022/12/06 13:20:44;;;;;;;6.55;2.20;;;8.10;99.90;;;;;;5031656;28;20029;-77
2022/12/06 13:23:17;;;;;;;6.88;2.17;;;8.10;99.90;;;;;;5033549;28;20064;-78
2022/12/06 13:25:49;;;;;;;8.70;2.42;;;8.20;99.90;;;;;;5027767;28;20385;-78
2022/12/06 13:28:25;;;;;;;5.45;2.20;;;8.30;99.90;;;;;;5034480;28;20018;-78
2022/12/06 13:30:58;;;;;;;5.35;2.20;;;8.30;99.90;;;;;;5034465;28;20135;-77
2022/12/06 13:33:28;;;;;;;4.15;2.40;;;8.50;99.90;;;;;;5035266;28;20374;-77
2022/12/06 13:36:05;;;;;;;4.35;2.03;;;8.50;99.90;;;;;;5021493;28;20029;-77
2022/12/06 13:38:36;;;;;;;6.95;2.30;;;8.60;99.90;;;;;;5021484;28;20037;-78
2022/12/06 13:41:10;;;;;;;3.08;1.85;;;8.50;99.90;;;;;;5030889;28;20033;-77
2022/12/06 13:43:35;;;;;;;5.40;2.22;;;8.50;99.90;;;;;;5027294;28;20160;-78
2022/12/06 13:46:20;;;;;;;4.95;2.33;;;8.50;99.90;;;;;;5030630;28;20116;-77
2022/12/06 13:48:54;;;;;;;3.60;1.70;;;8.50;99.90;;;;;;5031417;28;20029;-77